Time;durP1;ratioP1;P1;durP2;ratioP2;P2;SDS_P1;SDS_P2;PMS_P1;PMS_P2;Temp;Humidity;BMP_temperature;BMP_pressure;BME280_temperature;BME280_humidity;BME280_pressure;Samples;Min_cycle;Max_cycle;Signal;HPM_P1;HPM_P2
2021/10/26 00:02:00;;;;;;;9.10;6.78;;;;;;;10.07;nan;100961.53;5030327;28;20065;-77
2021/10/26 00:04:26;;;;;;;11.77;6.88;;;;;;;10.06;nan;100965.16;5030252;28;20037;-77
2021/10/26 00:06:51;;;;;;;10.07;6.90;;;;;;;10.10;nan;100963.88;5030956;28;20048;-77
2021/10/26 00:09:16;;;;;;;11.38;7.03;;;;;;;10.07;nan;100966.81;5033614;28;20048;-76
2021/10/26 00:11:43;;;;;;;10.50;7.43;;;;;;;10.14;nan;100965.28;5037625;28;20093;-76
2021/10/26 00:14:08;;;;;;;14.38;9.07;;;;;;;10.20;nan;100963.88;5035160;28;20025;-76
2021/10/26 00:16:34;;;;;;;12.27;8.27;;;;;;;10.15;nan;100971.41;5036916;28;20071;-77
2021/10/26 00:18:59;;;;;;;10.00;7.57;;;;;;;10.14;nan;100967.09;5030733;28;20038;-76
2021/10/26 00:21:25;;;;;;;11.27;8.07;;;;;;;10.15;nan;100974.03;5031453;28;20104;-76
2021/10/26 00:23:50;;;;;;;12.18;8.13;;;;;;;10.14;nan;100975.03;5031142;28;20107;-76
2021/10/26 00:26:16;;;;;;;10.57;7.65;;;;;;;10.15;nan;100981.97;5030043;28;20038;-77
2021/10/26 00:28:41;;;;;;;10.60;8.43;;;;;;;10.17;nan;100983.50;5030274;28;20049;-76
2021/10/26 00:31:06;;;;;;;12.73;7.90;;;;;;;10.20;nan;100985.88;5030171;28;20112;-76
2021/10/26 00:33:32;;;;;;;11.48;7.57;;;;;;;10.23;nan;100990.06;5029175;28;20033;-76
2021/10/26 00:35:57;;;;;;;11.55;7.57;;;;;;;10.22;nan;100983.09;5028704;28;20497;-76
2021/10/26 00:38:23;;;;;;;11.45;7.57;;;;;;;10.20;nan;100985.88;5030009;28;20052;-76
2021/10/26 00:40:49;;;;;;;9.88;7.28;;;;;;;10.23;nan;100984.78;5030103;28;20037;-76
2021/10/26 00:43:15;;;;;;;12.27;8.18;;;;;;;10.28;nan;100993.16;5029025;28;20033;-76
2021/10/26 00:45:40;;;;;;;11.32;7.50;;;;;;;10.27;nan;100991.44;5029974;28;20526;-76
2021/10/26 00:48:06;;;;;;;14.82;8.27;;;;;;;10.29;nan;100986.88;5028552;28;20300;-77
2021/10/26 00:50:32;;;;;;;11.30;8.13;;;;;;;10.31;nan;100998.16;5030169;28;20402;-76
2021/10/26 00:52:57;;;;;;;10.70;7.78;;;;;;;10.32;nan;100999.84;5030391;28;20025;-76
2021/10/26 00:55:23;;;;;;;10.73;7.38;;;;;;;10.30;nan;101001.78;5029963;28;20064;-77
2021/10/26 00:57:48;;;;;;;8.98;7.50;;;;;;;10.31;nan;100997.31;5029991;28;20091;-76
2021/10/26 01:00:16;;;;;;;12.18;7.93;;;;;;;10.34;nan;100995.22;5029664;28;20048;-76
2021/10/26 01:02:42;;;;;;;11.77;8.63;;;;;;;10.40;nan;100999.13;5029819;28;20465;-76
2021/10/26 01:05:08;;;;;;;11.63;7.97;;;;;;;10.35;nan;101002.19;5029705;28;20099;-77
2021/10/26 01:07:34;;;;;;;13.57;9.15;;;;;;;10.39;nan;100994.81;5030013;28;20030;-77
2021/10/26 01:10:00;;;;;;;10.38;8.07;;;;;;;10.34;nan;100989.94;5030010;28;20411;-76
2021/10/26 01:12:25;;;;;;;13.52;7.82;;;;;;;10.29;nan;100984.22;5029482;28;20033;-77
2021/10/26 01:14:51;;;;;;;11.23;7.13;;;;;;;10.31;nan;100992.03;5029685;28;20038;-77
2021/10/26 01:17:17;;;;;;;11.27;8.00;;;;;;;10.30;nan;100988.56;5029966;28;20042;-76
2021/10/26 01:19:47;;;;;;;12.75;8.90;;;;;;;10.32;nan;100985.75;5029867;28;20095;-77
2021/10/26 01:22:14;;;;;;;12.20;8.32;;;;;;;10.29;nan;100983.41;5029683;28;20044;-76
2021/10/26 01:24:40;;;;;;;9.50;7.20;;;;;;;10.31;nan;100987.56;5029498;28;20026;-76
2021/10/26 01:27:05;;;;;;;11.63;8.07;;;;;;;10.34;nan;100981.19;5029772;28;20033;-76
2021/10/26 01:29:31;;;;;;;8.90;7.18;;;;;;;10.28;nan;100990.50;5029703;28;20515;-76
2021/10/26 01:31:57;;;;;;;10.50;7.45;;;;;;;10.29;nan;100984.22;5030049;28;20040;-76
2021/10/26 01:34:22;;;;;;;10.30;8.00;;;;;;;10.27;nan;100991.44;5028956;28;20494;-76
2021/10/26 01:36:50;;;;;;;10.23;7.65;;;;;;;10.21;nan;100984.91;5029614;28;20112;-76
2021/10/26 01:39:16;;;;;;;9.75;7.80;;;;;;;10.25;nan;100989.91;5028222;28;20087;-76
2021/10/26 01:41:41;;;;;;;10.60;7.13;;;;;;;10.27;nan;100986.16;5029934;28;20128;-77
2021/10/26 01:44:06;;;;;;;9.93;7.22;;;;;;;10.26;nan;100988.94;5027748;28;20112;-76
2021/10/26 01:46:32;;;;;;;12.35;6.50;;;;;;;10.23;nan;100991.88;5029365;28;20392;-76
2021/10/26 01:48:57;;;;;;;10.57;7.63;;;;;;;10.24;nan;100986.44;5029459;28;20037;-77
2021/10/26 01:51:22;;;;;;;10.93;7.63;;;;;;;10.22;nan;100985.72;5028285;28;20036;-76
2021/10/26 01:53:48;;;;;;;11.05;7.55;;;;;;;10.25;nan;100996.03;5029395;28;20029;-76
2021/10/26 01:56:13;;;;;;;11.40;8.13;;;;;;;10.32;nan;100993.69;5028552;28;20118;-77
2021/10/26 01:58:39;;;;;;;10.93;7.80;;;;;;;10.29;nan;100991.34;5029530;28;20083;-76
2021/10/26 02:01:04;;;;;;;12.38;8.70;;;;;;;10.33;nan;100998.84;5029547;28;20498;-77
2021/10/26 02:03:29;;;;;;;12.30;8.57;;;;;;;10.41;nan;100996.34;5028544;28;20044;-76
2021/10/26 02:05:55;;;;;;;12.05;8.45;;;;;;;10.44;nan;100995.25;5030444;28;20464;-76
2021/10/26 02:08:20;;;;;;;12.32;8.80;;;;;;;10.45;nan;100993.44;5032921;28;20510;-77
2021/10/26 02:10:45;;;;;;;13.32;8.27;;;;;;;10.46;nan;100989.81;5031694;28;20030;-77
2021/10/26 02:13:11;;;;;;;13.43;8.82;;;;;;;10.50;nan;100989.38;5032869;28;20403;-76
2021/10/26 02:15:36;;;;;;;11.82;9.02;;;;;;;10.46;nan;100990.63;5032678;28;20108;-77
2021/10/26 02:18:01;;;;;;;11.05;7.90;;;;;;;10.44;nan;100991.75;5034281;28;20487;-76
2021/10/26 02:20:27;;;;;;;13.95;8.65;;;;;;;10.48;nan;100991.34;5033954;28;20041;-76
2021/10/26 02:22:52;;;;;;;13.32;8.73;;;;;;;10.51;nan;100991.06;5034767;28;20405;-76
2021/10/26 02:25:18;;;;;;;11.15;8.82;;;;;;;10.51;nan;100995.50;5032620;28;20030;-76
2021/10/26 02:27:44;;;;;;;11.30;8.13;;;;;;;10.52;nan;100997.19;5030279;28;20042;-77
2021/10/26 02:30:10;;;;;;;11.40;8.60;;;;;;;10.57;nan;100993.13;5031694;28;20040;-76
2021/10/26 02:32:35;;;;;;;14.77;8.93;;;;;;;10.58;nan;100996.63;5031281;28;20033;-76
2021/10/26 02:35:00;;;;;;;13.63;9.32;;;;;;;10.65;nan;100988.97;5032227;28;20056;-76
2021/10/26 02:37:26;;;;;;;12.18;8.90;;;;;;;10.62;nan;100982.13;5032639;28;20032;-77
2021/10/26 02:39:51;;;;;;;13.90;9.60;;;;;;;10.62;nan;100990.06;5032429;28;20034;-77
2021/10/26 02:42:17;;;;;;;12.73;8.85;;;;;;;10.60;nan;100989.38;5031515;28;20026;-76
2021/10/26 02:44:43;;;;;;;11.02;9.35;;;;;;;10.61;nan;100991.06;5032305;28;20037;-76
2021/10/26 02:47:08;;;;;;;11.90;8.80;;;;;;;10.59;nan;100982.44;5033028;28;20402;-76
2021/10/26 02:49:33;;;;;;;13.75;9.20;;;;;;;10.55;nan;100986.31;5032332;28;20029;-76
2021/10/26 02:51:59;;;;;;;12.43;8.95;;;;;;;10.55;nan;100981.88;5032248;28;20037;-77
2021/10/26 02:54:25;;;;;;;12.25;9.30;;;;;;;10.49;nan;100976.31;5031827;28;20037;-77
2021/10/26 02:56:50;;;;;;;12.95;8.60;;;;;;;10.45;nan;100990.78;5031105;28;20033;-77
2021/10/26 02:59:15;;;;;;;11.10;8.43;;;;;;;10.38;nan;100988.69;5030639;28;20026;-76
2021/10/26 03:01:41;;;;;;;13.52;9.23;;;;;;;10.39;nan;100990.38;5032079;28;20080;-77
2021/10/26 03:04:06;;;;;;;11.25;8.90;;;;;;;10.38;nan;100995.78;5030366;28;20524;-77
2021/10/26 03:06:31;;;;;;;10.93;8.75;;;;;;;10.38;nan;100991.34;5032250;28;20037;-77
2021/10/26 03:08:56;;;;;;;11.45;8.32;;;;;;;10.25;nan;100996.03;5032187;28;20037;-76
2021/10/26 03:11:22;;;;;;;10.30;8.23;;;;;;;10.26;nan;100997.69;5032236;28;20041;-76
2021/10/26 03:13:47;;;;;;;11.20;8.13;;;;;;;10.22;nan;100998.94;5031875;28;20462;-77
2021/10/26 03:16:12;;;;;;;11.20;7.30;;;;;;;10.17;nan;101002.00;5030797;28;20701;-77
2021/10/26 03:18:38;;;;;;;10.57;7.80;;;;;;;10.12;nan;101011.31;5030687;28;20124;-76
2021/10/26 03:21:03;;;;;;;9.32;7.50;;;;;;;10.10;nan;101018.53;5032464;28;20029;-77
2021/10/26 03:23:28;;;;;;;13.25;8.60;;;;;;;10.17;nan;101014.38;5030647;28;20053;-77
2021/10/26 03:25:54;;;;;;;11.45;8.32;;;;;;;10.24;nan;101020.78;5032077;28;20494;-76
2021/10/26 03:28:20;;;;;;;11.57;7.53;;;;;;;10.24;nan;101023.44;5031600;28;20548;-76
2021/10/26 03:30:46;;;;;;;11.02;8.25;;;;;;;10.34;nan;101023.47;5032030;28;20067;-77
2021/10/26 03:33:11;;;;;;;10.93;7.85;;;;;;;10.31;nan;101027.22;5030528;28;20029;-76
2021/10/26 03:35:37;;;;;;;10.55;7.28;;;;;;;10.31;nan;101026.41;5031980;28;20060;-76
2021/10/26 03:38:03;;;;;;;10.80;7.90;;;;;;;10.37;nan;101034.63;5031781;28;20040;-76
2021/10/26 03:40:28;;;;;;;11.35;8.20;;;;;;;10.38;nan;101022.22;5030916;28;20398;-77
2021/10/26 03:42:53;;;;;;;11.40;8.05;;;;;;;10.45;nan;101028.63;5032322;28;20097;-77
2021/10/26 03:45:19;;;;;;;11.05;8.05;;;;;;;10.46;nan;101026.81;5030563;28;20445;-77
2021/10/26 03:47:45;;;;;;;9.88;7.20;;;;;;;10.46;nan;101027.66;5031913;28;20049;-77
2021/10/26 03:50:12;;;;;;;10.23;7.28;;;;;;;10.49;nan;101027.38;5031297;28;20034;-77
2021/10/26 03:52:37;;;;;;;11.45;7.97;;;;;;;10.51;nan;101027.22;5031561;28;20503;-77
2021/10/26 03:55:05;;;;;;;13.13;7.95;;;;;;;10.54;nan;101033.09;5029750;28;20040;-77
2021/10/26 03:57:30;;;;;;;9.75;7.28;;;;;;;10.47;nan;101034.63;5031779;28;20092;-77
2021/10/26 03:59:55;;;;;;;10.73;7.45;;;;;;;10.51;nan;101036.03;5031526;28;20030;-77
2021/10/26 04:02:25;;;;;;;9.35;7.03;;;;;;;10.51;nan;101043.97;5029404;28;20044;-76
2021/10/26 04:04:57;;;;;;;12.45;8.07;;;;;;;10.58;nan;101046.84;5031314;28;20037;-76
2021/10/26 04:07:22;;;;;;;11.88;8.23;;;;;;;10.58;nan;101049.50;5031410;28;20494;-77
2021/10/26 04:10:12;;;;;;;9.75;7.00;;;;;;;10.55;nan;101049.78;5031288;28;20263;-76
2021/10/26 04:12:35;;;;;;;11.32;8.05;;;;;;;10.58;nan;101054.78;5030717;28;20571;-76
2021/10/26 04:15:01;;;;;;;11.02;7.68;;;;;;;10.62;nan;101057.03;5030930;28;20041;-77
2021/10/26 04:17:27;;;;;;;8.15;6.90;;;;;;;10.62;nan;101053.53;5031391;28;20056;-77
2021/10/26 04:19:59;;;;;;;12.07;8.18;;;;;;;10.68;nan;101055.66;5031111;28;20124;-76
2021/10/26 04:22:25;;;;;;;11.73;7.55;;;;;;;10.64;nan;101056.91;5031047;28;20037;-77
2021/10/26 04:24:51;;;;;;;12.85;8.38;;;;;;;10.66;nan;101054.94;5031048;28;20395;-77
2021/10/26 04:27:18;;;;;;;11.80;7.70;;;;;;;10.61;nan;101050.06;5030551;28;20120;-77
2021/10/26 04:29:45;;;;;;;9.98;6.88;;;;;;;10.58;nan;101066.22;5029874;28;20068;-77
2021/10/26 04:32:11;;;;;;;9.57;7.15;;;;;;;10.56;nan;101068.16;5030678;28;20043;-77
2021/10/26 04:34:37;;;;;;;10.95;7.45;;;;;;;10.53;nan;101073.72;5029248;28;20033;-77
2021/10/26 04:37:06;;;;;;;11.02;7.90;;;;;;;10.59;nan;101067.88;5031389;28;20494;-77
2021/10/26 04:39:32;;;;;;;11.55;7.88;;;;;;;10.61;nan;101065.13;5030795;28;20478;-77
2021/10/26 04:41:58;;;;;;;8.77;6.90;;;;;;;10.54;nan;101058.72;5031352;28;20033;-77
2021/10/26 04:44:23;;;;;;;13.07;7.82;;;;;;;10.62;nan;101069.41;5030148;28;20379;-77
2021/10/26 04:46:49;;;;;;;12.60;7.45;;;;;;;10.59;nan;101067.88;5031262;28;20550;-76
2021/10/26 04:49:14;;;;;;;10.00;7.60;;;;;;;10.55;nan;101074.41;5028883;28;20033;-77
2021/10/26 04:51:41;;;;;;;9.90;7.13;;;;;;;10.51;nan;101075.69;5030760;28;20030;-77
2021/10/26 04:54:07;;;;;;;10.10;7.47;;;;;;;10.44;nan;101071.06;5030034;28;20065;-77
2021/10/26 04:56:32;;;;;;;10.10;7.07;;;;;;;10.38;nan;101075.94;5030430;28;20026;-77
2021/10/26 04:58:59;;;;;;;12.02;8.00;;;;;;;10.40;nan;101078.44;5029454;28;20068;-77
2021/10/26 05:01:24;;;;;;;10.90;7.60;;;;;;;10.32;nan;101075.63;5030374;28;20034;-77
2021/10/26 05:03:50;;;;;;;13.55;8.43;;;;;;;10.34;nan;101081.63;5031050;28;20038;-77
2021/10/26 05:06:15;;;;;;;10.48;7.38;;;;;;;10.29;nan;101081.19;5029867;28;20576;-77
2021/10/26 05:08:40;;;;;;;10.07;7.35;;;;;;;10.24;nan;101073.66;5030638;28;20112;-77
2021/10/26 05:11:06;;;;;;;9.75;7.43;;;;;;;10.23;nan;101082.56;5030506;28;20029;-77
2021/10/26 05:13:32;;;;;;;10.85;7.55;;;;;;;10.19;nan;101079.34;5030573;28;20053;-76
2021/10/26 05:15:58;;;;;;;10.77;8.02;;;;;;;10.23;nan;101073.81;5030277;28;20087;-77
2021/10/26 05:18:24;;;;;;;9.38;7.40;;;;;;;10.22;nan;101070.31;5029972;28;20025;-77
2021/10/26 05:20:50;;;;;;;8.80;6.68;;;;;;;10.20;nan;101080.16;5030127;28;20498;-77
2021/10/26 05:23:17;;;;;;;11.27;7.70;;;;;;;10.23;nan;101077.28;5030471;28;20034;-77
2021/10/26 05:25:47;;;;;;;10.82;7.50;;;;;;;10.29;nan;101074.09;5030014;28;20116;-77
2021/10/26 05:28:13;;;;;;;10.30;7.00;;;;;;;10.23;nan;101082.56;5029912;28;20037;-77
2021/10/26 05:30:38;;;;;;;9.45;7.32;;;;;;;10.29;nan;101078.56;5032550;28;20033;-77
2021/10/26 05:33:04;;;;;;;12.32;7.90;;;;;;;10.31;nan;101073.97;5035655;28;20379;-77
2021/10/26 05:35:30;;;;;;;12.38;7.68;;;;;;;10.32;nan;101076.50;5035455;28;20506;-77
2021/10/26 05:37:55;;;;;;;11.45;7.35;;;;;;;10.29;nan;101083.84;5036439;28;20453;-77
2021/10/26 05:40:20;;;;;;;9.30;6.70;;;;;;;10.29;nan;101082.03;5032308;28;20095;-77
2021/10/26 05:42:46;;;;;;;10.52;7.68;;;;;;;10.36;nan;101080.50;5033788;28;20029;-77
2021/10/26 05:45:11;;;;;;;12.77;6.95;;;;;;;10.35;nan;101092.06;5034571;28;20387;-76
2021/10/26 05:47:36;;;;;;;11.70;7.32;;;;;;;10.30;nan;101093.47;5034246;28;20205;-77
2021/10/26 05:50:03;;;;;;;8.70;6.85;;;;;;;10.32;nan;101094.13;5034018;28;20037;-77
2021/10/26 05:52:28;;;;;;;10.20;7.05;;;;;;;10.36;nan;101099.03;5033699;28;20122;-76
2021/10/26 05:54:53;;;;;;;10.13;6.88;;;;;;;10.40;nan;101094.31;5033731;28;20053;-76
2021/10/26 05:57:19;;;;;;;11.57;7.45;;;;;;;10.41;nan;101098.63;5034661;28;20108;-77
2021/10/26 05:59:44;;;;;;;10.02;6.93;;;;;;;10.40;nan;101089.84;5034323;28;20099;-77
2021/10/26 06:02:10;;;;;;;15.43;7.55;;;;;;;10.44;nan;101100.16;5032067;28;20029;-77
2021/10/26 06:04:35;;;;;;;9.25;6.75;;;;;;;10.43;nan;101103.78;5033919;28;20079;-77
2021/10/26 06:07:00;;;;;;;10.93;6.85;;;;;;;10.41;nan;101107.38;5034018;28;20044;-77
2021/10/26 06:09:29;;;;;;;7.35;6.30;;;;;;;10.38;nan;101120.03;5034306;28;20033;-77
2021/10/26 06:11:57;;;;;;;9.73;6.95;;;;;;;10.36;nan;101124.63;5032958;28;20128;-76
2021/10/26 06:14:22;;;;;;;10.85;6.65;;;;;;;10.38;nan;101128.81;5032993;28;20076;-76
2021/10/26 06:16:48;;;;;;;8.40;6.15;;;;;;;10.40;nan;101136.63;5032813;28;20021;-76
2021/10/26 06:19:14;;;;;;;10.38;6.65;;;;;;;10.46;nan;101140.50;5031372;28;20041;-76
2021/10/26 06:21:39;;;;;;;9.18;6.50;;;;;;;10.44;nan;101137.16;5032580;28;20577;-76
2021/10/26 06:24:05;;;;;;;10.18;7.20;;;;;;;10.40;nan;101144.53;5032026;28;20042;-76
2021/10/26 06:26:31;;;;;;;9.57;7.07;;;;;;;10.44;nan;101139.81;5033192;28;20074;-76
2021/10/26 06:28:57;;;;;;;13.18;8.10;;;;;;;10.46;nan;101138.69;5032646;28;20090;-76
2021/10/26 06:31:22;;;;;;;11.07;7.55;;;;;;;10.41;nan;101143.56;5033062;28;20029;-76
2021/10/26 06:33:47;;;;;;;9.52;7.78;;;;;;;10.37;nan;101152.75;5032652;28;20060;-76
2021/10/26 06:36:14;;;;;;;9.98;7.78;;;;;;;10.35;nan;101154.69;5031919;28;20037;-76
2021/10/26 06:38:40;;;;;;;10.48;7.00;;;;;;;10.38;nan;101154.41;5032742;28;20494;-77
2021/10/26 06:41:06;;;;;;;9.80;7.30;;;;;;;10.41;nan;101149.69;5032775;28;20034;-76
2021/10/26 06:43:32;;;;;;;9.25;6.57;;;;;;;10.38;nan;101160.53;5032770;28;20029;-76
2021/10/26 06:45:58;;;;;;;10.77;7.43;;;;;;;10.36;nan;101161.63;5032717;28;20025;-76
2021/10/26 06:48:23;;;;;;;9.18;6.78;;;;;;;10.33;nan;101169.84;5032147;28;20490;-76
2021/10/26 06:50:49;;;;;;;9.32;6.90;;;;;;;10.31;nan;101161.22;5032692;28;20045;-77
2021/10/26 06:53:15;;;;;;;6.50;5.70;;;;;;;10.37;nan;101172.09;5031733;28;20045;-77
2021/10/26 06:55:41;;;;;;;7.38;5.50;;;;;;;10.43;nan;101169.88;5033214;28;20489;-76
2021/10/26 06:58:06;;;;;;;6.20;4.90;;;;;;;10.44;nan;101174.19;5032583;28;20035;-77
2021/10/26 07:00:31;;;;;;;5.68;3.92;;;;;;;10.45;nan;101168.75;5031708;28;20022;-77
2021/10/26 07:02:57;;;;;;;6.10;4.60;;;;;;;10.46;nan;101172.25;5032823;28;20525;-76
2021/10/26 07:05:25;;;;;;;10.32;6.15;;;;;;;10.52;nan;101167.25;5032528;28;20037;-76
2021/10/26 07:07:51;;;;;;;8.43;6.32;;;;;;;10.55;nan;101160.84;5032515;28;20089;-76
2021/10/26 07:10:19;;;;;;;11.50;7.72;;;;;;;10.62;nan;101167.28;5031953;28;20129;-76
2021/10/26 07:12:45;;;;;;;11.05;6.68;;;;;;;10.69;nan;101171.03;5031383;28;20030;-77
2021/10/26 07:15:11;;;;;;;10.93;6.72;;;;;;;10.73;nan;101175.09;5031598;28;20032;-76
2021/10/26 07:17:38;;;;;;;9.05;6.70;;;;;;;10.78;nan;101180.81;5031022;28;20058;-77
2021/10/26 07:20:07;;;;;;;10.80;7.50;;;;;;;10.80;nan;101181.50;5031526;28;20053;-77
2021/10/26 07:22:32;;;;;;;9.88;6.85;;;;;;;10.79;nan;101181.63;5031957;28;20037;-77
2021/10/26 07:25:02;;;;;;;11.18;7.32;;;;;;;10.84;nan;101188.22;5031820;28;20087;-76
2021/10/26 07:27:27;;;;;;;12.27;7.60;;;;;;;10.82;nan;101202.50;5031766;28;20029;-76
2021/10/26 07:29:53;;;;;;;12.00;7.72;;;;;;;10.83;nan;101196.28;5031431;28;20103;-76
2021/10/26 07:32:20;;;;;;;11.75;8.27;;;;;;;10.86;nan;101206.56;5031643;28;20060;-76
2021/10/26 07:34:45;;;;;;;10.50;7.32;;;;;;;10.84;nan;101214.66;5031884;28;20450;-77
2021/10/26 07:37:11;;;;;;;13.70;8.45;;;;;;;10.82;nan;101207.81;5032446;28;20057;-76
2021/10/26 07:39:46;;;;;;;11.45;8.13;;;;;;;10.81;nan;101206.16;5032303;28;20040;-76
2021/10/26 07:42:15;;;;;;;9.82;7.13;;;;;;;10.86;nan;101213.69;5031401;28;20099;-76
2021/10/26 07:44:42;;;;;;;10.07;6.72;;;;;;;10.88;nan;101217.03;5031908;28;20524;-76
2021/10/26 07:47:08;;;;;;;8.93;6.80;;;;;;;10.93;nan;101223.56;5031705;28;20068;-76
2021/10/26 07:49:33;;;;;;;12.20;7.80;;;;;;;11.05;nan;101224.28;5031748;28;20049;-77
2021/10/26 07:52:00;;;;;;;10.45;7.50;;;;;;;11.09;nan;101227.50;5030729;28;20060;-77
2021/10/26 07:54:25;;;;;;;11.80;8.15;;;;;;;11.07;nan;101219.69;5031524;28;20056;-77
2021/10/26 07:56:52;;;;;;;12.38;7.60;;;;;;;11.09;nan;101223.03;5031409;28;20089;-76
2021/10/26 07:59:17;;;;;;;12.60;7.82;;;;;;;11.08;nan;101225.81;5030535;28;20029;-76
2021/10/26 08:01:45;;;;;;;10.30;7.05;;;;;;;11.09;nan;101225.69;5033056;28;20041;-76
2021/10/26 08:04:10;;;;;;;10.38;7.20;;;;;;;11.12;nan;101233.34;5031731;28;20053;-77
2021/10/26 08:06:35;;;;;;;9.30;7.05;;;;;;;11.17;nan;101231.13;5032861;28;20108;-77
2021/10/26 08:09:01;;;;;;;11.23;7.80;;;;;;;11.16;nan;101233.91;5032068;28;20502;-77
2021/10/26 08:11:26;;;;;;;10.55;6.90;;;;;;;11.18;nan;101227.50;5031856;28;20036;-77
2021/10/26 08:13:52;;;;;;;11.50;7.60;;;;;;;11.24;nan;101229.59;5031913;28;20064;-77
2021/10/26 08:16:18;;;;;;;10.30;7.28;;;;;;;11.20;nan;101237.94;5029549;28;20128;-77
2021/10/26 08:18:43;;;;;;;11.75;7.63;;;;;;;11.24;nan;101247.28;5030252;28;20518;-77
2021/10/26 08:21:12;;;;;;;13.45;8.52;;;;;;;11.25;nan;101247.16;5032246;28;20057;-77
2021/10/26 08:23:39;;;;;;;11.93;7.97;;;;;;;11.22;nan;101252.72;5031875;28;20117;-77
2021/10/26 08:26:07;;;;;;;11.73;8.07;;;;;;;11.23;nan;101246.47;5030643;28;20152;-77
2021/10/26 08:28:33;;;;;;;10.68;7.43;;;;;;;11.19;nan;101250.34;5031515;28;20061;-77
2021/10/26 08:31:04;;;;;;;11.80;7.82;;;;;;;11.27;nan;101247.88;5031965;28;20498;-77
2021/10/26 08:35:54;;;;;;;14.30;8.13;;;;;;;11.33;nan;101245.63;5031174;28;20033;-77
2021/10/26 08:38:20;;;;;;;10.70;7.78;;;;;;;11.32;nan;101239.50;5030327;28;20028;-77
2021/10/26 08:40:48;;;;;;;12.82;8.07;;;;;;;11.32;nan;101238.66;5032321;28;20434;-77
2021/10/26 08:43:22;;;;;;;10.55;7.95;;;;;;;11.35;nan;101246.34;5031404;28;20041;-77
2021/10/26 08:45:49;;;;;;;13.48;9.43;;;;;;;11.45;nan;101242.69;5029250;28;20044;-77
2021/10/26 08:48:23;;;;;;;11.80;8.52;;;;;;;11.44;nan;101248.13;5029348;28;20037;-77
2021/10/26 08:50:51;;;;;;;12.45;8.00;;;;;;;11.43;nan;101244.66;5030302;28;20098;-77
2021/10/26 08:53:18;;;;;;;11.85;8.00;;;;;;;11.47;nan;101243.41;5030591;28;20390;-77
2021/10/26 08:55:54;;;;;;;12.15;7.95;;;;;;;11.55;nan;101242.69;5030329;28;20501;-77
2021/10/26 08:58:21;;;;;;;12.00;7.05;;;;;;;11.60;nan;101245.75;5029815;28;20030;-77
2021/10/26 09:00:47;;;;;;;11.32;7.60;;;;;;;11.64;nan;101239.19;5030196;28;20041;-77
2021/10/26 09:03:23;;;;;;;10.25;7.70;;;;;;;11.68;nan;101234.47;5029968;28;20034;-77
2021/10/26 09:05:49;;;;;;;11.38;7.43;;;;;;;11.75;nan;101229.41;5029773;28;20034;-77
2021/10/26 09:08:19;;;;;;;12.50;8.30;;;;;;;11.73;nan;101236.66;5029735;28;20072;-77
2021/10/26 09:10:46;;;;;;;10.15;7.60;;;;;;;11.78;nan;101237.94;5030561;28;20041;-76
2021/10/26 09:19:12;;;;;;;12.48;7.28;;;;;;;11.92;nan;101227.88;5034477;28;20113;-77
2021/10/26 09:21:38;;;;;;;11.85;7.40;;;;;;;11.92;nan;101227.88;5034323;28;20033;-77
2021/10/26 09:24:09;;;;;;;12.02;7.53;;;;;;;12.00;nan;101225.34;5033772;28;20098;-77
2021/10/26 09:26:44;;;;;;;;;;;;;;;12.17;nan;101231.72;5034193;28;20033;-77
2021/10/26 09:29:09;;;;;;;14.18;7.70;;;;;;;12.45;nan;101232.59;5032309;28;19924;-77
2021/10/26 09:31:38;;;;;;;9.43;7.15;;;;;;;12.52;nan;101244.28;5033914;28;20034;-77
2021/10/26 09:34:07;;;;;;;10.45;7.25;;;;;;;12.59;nan;101239.25;5033779;28;20037;-77
2021/10/26 09:36:37;;;;;;;11.02;6.45;;;;;;;12.52;nan;101249.59;5033314;28;20036;-77
2021/10/26 09:39:02;;;;;;;10.20;7.38;;;;;;;12.56;nan;101250.13;5034138;28;20429;-77
2021/10/26 09:41:28;;;;;;;9.35;6.55;;;;;;;12.37;nan;101253.69;5033973;28;20362;-77
2021/10/26 09:44:10;;;;;;;8.93;6.22;;;;;;;12.35;nan;101248.56;5033907;28;20064;-77
2021/10/26 09:46:36;;;;;;;12.05;7.15;;;;;;;12.31;nan;101253.28;5033236;28;20421;-77
2021/10/26 09:49:01;;;;;;;10.35;7.03;;;;;;;12.29;nan;101249.13;5033604;28;20038;-77
2021/10/26 09:51:29;;;;;;;8.27;6.57;;;;;;;12.30;nan;101261.41;5033657;28;20562;-76
2021/10/26 09:53:56;;;;;;;11.48;6.65;;;;;;;12.27;nan;101264.34;5033549;28;20030;-77
2021/10/26 09:56:21;;;;;;;10.93;7.10;;;;;;;12.29;nan;101259.72;5031429;28;20045;-77
2021/10/26 09:58:47;;;;;;;11.18;7.40;;;;;;;12.29;nan;101260.56;5032171;28;20175;-76
2021/10/26 10:01:13;;;;;;;11.25;7.38;;;;;;;12.39;nan;101259.69;5032205;28;20033;-77
2021/10/26 10:03:40;;;;;;;10.63;6.97;;;;;;;12.44;nan;101258.28;5033164;28;20520;-77
2021/10/26 10:06:06;;;;;;;10.57;7.05;;;;;;;12.47;nan;101260.66;5032628;28;20379;-77
2021/10/26 10:08:35;;;;;;;9.68;7.40;;;;;;;12.62;nan;101262.81;5033102;28;20045;-77
2021/10/26 10:11:06;;;;;;;9.93;6.95;;;;;;;12.66;nan;101261.53;5033638;28;20120;-77
2021/10/26 10:13:33;;;;;;;8.13;6.30;;;;;;;12.72;nan;101258.28;5033063;28;20037;-77
2021/10/26 10:16:02;;;;;;;8.27;6.70;;;;;;;12.71;nan;101265.41;5032927;28;20038;-77
2021/10/26 10:18:29;;;;;;;8.82;6.35;;;;;;;12.76;nan;101264.97;5032589;28;20486;-77
2021/10/26 10:20:58;;;;;;;10.25;7.00;;;;;;;12.77;nan;101260.50;5033518;28;20040;-77
2021/10/26 10:23:25;;;;;;;9.93;6.53;;;;;;;12.97;nan;101259.41;5033202;28;20107;-77
2021/10/26 10:25:53;;;;;;;9.55;6.53;;;;;;;13.24;nan;101263.00;5032402;28;20029;-77
2021/10/26 10:28:25;;;;;;;9.20;6.00;;;;;;;13.48;nan;101257.94;5031884;28;20536;-77
2021/10/26 10:30:51;;;;;;;8.05;6.03;;;;;;;13.63;nan;101255.56;5031713;28;20051;-76
2021/10/26 10:33:20;;;;;;;7.32;5.30;;;;;;;13.72;nan;101254.63;5033145;28;20116;-77
2021/10/26 10:35:48;;;;;;;8.70;5.72;;;;;;;13.79;nan;101252.22;5032930;28;20104;-77
2021/10/26 10:38:15;;;;;;;9.95;6.65;;;;;;;13.87;nan;101256.75;5032943;28;20028;-77
2021/10/26 10:40:41;;;;;;;10.52;6.22;;;;;;;13.90;nan;101253.78;5033135;28;20037;-77
2021/10/26 10:43:07;;;;;;;9.93;5.82;;;;;;;13.83;nan;101266.88;5033477;28;20047;-77
2021/10/26 10:45:39;;;;;;;7.47;5.50;;;;;;;13.78;nan;101262.00;5031238;28;20033;-77
2021/10/26 10:48:32;;;;;;;9.57;5.53;;;;;;;13.79;nan;101262.84;5032404;28;20025;-77
2021/10/26 10:51:08;;;;;;;9.25;5.88;;;;;;;13.82;nan;101257.19;5034535;28;20524;-76
2021/10/26 10:53:34;;;;;;;9.02;4.80;;;;;;;13.66;nan;101260.59;5038891;28;20120;-76
2021/10/26 10:56:12;;;;;;;8.52;5.15;;;;;;;13.69;nan;101254.97;5037131;28;20037;-77
2021/10/26 10:58:40;;;;;;;6.60;4.68;;;;;;;13.69;nan;101257.63;5038323;28;20502;-77
2021/10/26 11:01:26;;;;;;;7.85;4.38;;;;;;;13.74;nan;101252.66;5034729;28;20316;-77
2021/10/26 11:03:53;;;;;;;5.97;3.53;;;;;;;13.59;nan;101248.91;5033675;28;20034;-77
2021/10/26 11:06:41;;;;;;;4.93;3.42;;;;;;;13.62;nan;101248.59;5032174;28;20114;-76
2021/10/26 11:09:25;;;;;;;5.82;3.67;;;;;;;13.65;nan;101250.94;5032777;28;20037;-77
2021/10/26 11:12:14;;;;;;;7.07;4.13;;;;;;;13.70;nan;101238.00;5033058;28;20022;-77
2021/10/26 11:14:55;;;;;;;6.13;4.07;;;;;;;13.90;nan;101229.88;5031779;28;20418;-76
2021/10/26 11:17:35;;;;;;;7.57;4.40;;;;;;;14.18;nan;101239.34;5032092;28;20030;-77
2021/10/26 11:20:05;;;;;;;7.65;4.60;;;;;;;14.42;nan;101235.13;5032493;28;20038;-77
2021/10/26 11:22:45;;;;;;;7.25;4.15;;;;;;;14.62;nan;101230.41;5030458;28;20216;-77
2021/10/26 11:25:27;;;;;;;5.57;3.93;;;;;;;14.66;nan;101223.78;5031755;28;20151;-77
2021/10/26 11:27:53;;;;;;;5.57;4.18;;;;;;;14.68;nan;101231.59;5031778;28;20240;-77
2021/10/26 11:30:27;;;;;;;4.20;3.40;;;;;;;14.73;nan;101231.94;5031619;28;20029;-77
2021/10/26 11:33:12;;;;;;;7.40;4.10;;;;;;;14.95;nan;101230.53;5030516;28;20040;-77
2021/10/26 11:35:49;;;;;;;5.68;3.70;;;;;;;15.00;nan;101229.03;5031689;28;20097;-77
2021/10/26 11:38:21;;;;;;;6.57;3.60;;;;;;;14.99;nan;101227.38;5030912;28;20439;-77
2021/10/26 11:40:55;;;;;;;3.50;3.00;;;;;;;14.84;nan;101228.97;5031877;28;20146;-77
2021/10/26 11:43:21;;;;;;;6.57;3.90;;;;;;;14.61;nan;101221.59;5031590;28;20120;-77
2021/10/26 11:46:00;;;;;;;7.22;3.58;;;;;;;14.67;nan;101227.28;5031618;28;20026;-77